createdAt,value
2017-09-23T00:00:57.054Z,0
2017-09-23T00:01:57.373Z,0
2017-09-23T00:02:57.040Z,0
2017-09-23T00:03:57.016Z,0
2017-09-23T00:04:57.326Z,0
2017-09-23T00:05:57.700Z,0
2017-09-23T00:06:56.983Z,0
2017-09-23T00:07:57.293Z,0
2017-09-23T00:08:56.644Z,0
2017-09-23T00:09:56.943Z,0
2017-09-23T00:10:56.922Z,0
2017-09-23T00:11:57.296Z,0
2017-09-23T00:12:56.586Z,0
2017-09-23T00:13:56.897Z,0
2017-09-23T00:14:56.556Z,0
2017-09-23T00:15:57.508Z,0
2017-09-23T00:16:56.852Z,0
2017-09-23T00:17:57.173Z,0
2017-09-23T00:18:56.827Z,0
2017-09-23T00:19:56.179Z,0
2017-09-23T00:20:57.123Z,0
2017-09-23T00:21:57.450Z,0
2017-09-23T00:22:56.461Z,0
2017-09-23T00:23:56.774Z,0
2017-09-23T00:24:57.072Z,0
2017-09-23T00:25:56.103Z,0
2017-09-23T00:26:57.056Z,0
2017-09-23T00:27:56.076Z,0
2017-09-23T00:28:56.714Z,0
2017-09-23T00:29:56.373Z,0
2017-09-23T00:30:57.338Z,0
2017-09-23T00:31:56.673Z,0
2017-09-23T00:32:56.983Z,0
2017-09-23T00:33:56.964Z,0
2017-09-23T00:34:56.308Z,0
2017-09-23T00:35:57.269Z,0
2017-09-23T00:36:56.609Z,0
2017-09-23T00:37:56.269Z,0
2017-09-23T00:38:56.271Z,0
2017-09-23T00:39:56.572Z,0
2017-09-23T00:40:56.871Z,0
2017-09-23T00:41:57.233Z,0
2017-09-23T00:42:56.532Z,0
2017-09-23T00:43:56.524Z,0
2017-09-23T00:44:56.503Z,0
2017-09-23T00:45:56.816Z,0
2017-09-23T00:46:56.488Z,0
2017-09-23T00:47:56.482Z,0
2017-09-23T00:48:56.785Z,0
2017-09-23T00:49:56.448Z,0
2017-09-23T00:50:56.808Z,0
2017-09-23T00:51:56.107Z,0
2017-09-23T00:52:56.416Z,0
2017-09-23T00:53:56.738Z,0
2017-09-23T00:54:56.758Z,0
2017-09-23T00:55:56.055Z,0
2017-09-23T00:56:56.044Z,0
2017-09-23T00:57:56.353Z,0
2017-09-23T00:58:56.655Z,0
2017-09-23T00:59:56.652Z,0
2017-09-23T01:00:55.668Z,0
2017-09-23T01:01:55.993Z,0
2017-09-23T01:02:56.018Z,0
2017-09-23T01:03:56.286Z,0
2017-09-23T01:04:56.263Z,0
2017-09-23T01:05:55.927Z,0
2017-09-23T01:06:55.912Z,0
2017-09-23T01:07:56.228Z,0
2017-09-23T01:08:56.213Z,0
2017-09-23T01:09:55.883Z,0
2017-09-23T01:10:55.866Z,0
2017-09-23T01:11:56.501Z,0
2017-09-23T01:12:56.155Z,0
2017-09-23T01:13:56.152Z,0
2017-09-23T01:14:55.820Z,0
2017-09-23T01:15:55.808Z,0
2017-09-23T01:16:56.112Z,0
2017-09-23T01:17:55.777Z,0
2017-09-23T01:18:55.772Z,0
2017-09-23T01:19:56.716Z,0
2017-09-23T01:20:56.398Z,0
2017-09-23T01:21:56.707Z,0
2017-09-23T01:22:55.712Z,0
2017-09-23T01:23:56.350Z,0
2017-09-23T01:24:56.019Z,0
2017-09-23T01:25:55.678Z,0
2017-09-23T01:26:55.739Z,0
2017-09-23T01:27:55.336Z,0
2017-09-23T01:28:56.610Z,0
2017-09-23T01:29:55.311Z,0
2017-09-23T01:30:55.618Z,0
2017-09-23T01:31:55.599Z,0
2017-09-23T01:32:56.238Z,0
2017-09-23T01:33:55.901Z,0
2017-09-23T01:34:55.937Z,0
2017-09-23T01:35:55.558Z,0
2017-09-23T01:36:55.268Z,0
2017-09-23T01:37:56.496Z,0
2017-09-23T01:38:56.478Z,0
2017-09-23T01:39:55.830Z,0
2017-09-23T01:40:55.540Z,0
2017-09-23T01:41:56.131Z,0
2017-09-23T01:42:55.792Z,0
2017-09-23T01:43:55.146Z,0
2017-09-23T01:44:55.441Z,0
2017-09-23T01:45:55.756Z,0
2017-09-23T01:46:56.070Z,0
2017-09-23T01:47:55.462Z,0
2017-09-23T01:48:55.719Z,0
2017-09-23T01:49:55.696Z,0
2017-09-23T01:50:55.694Z,0
2017-09-23T01:51:55.720Z,0
2017-09-23T01:52:56.002Z,0
2017-09-23T01:53:56.507Z,0
2017-09-23T01:54:54.995Z,0
2017-09-23T01:55:55.638Z,0
2017-09-23T01:56:55.941Z,0
2017-09-23T01:57:55.600Z,0
2017-09-23T01:58:56.238Z,0
2017-09-23T01:59:55.254Z,0
2017-09-23T02:00:55.564Z,0
2017-09-23T02:01:55.553Z,0
2017-09-23T02:02:55.597Z,0
2017-09-23T02:03:55.524Z,0
2017-09-23T02:04:55.845Z,0
2017-09-23T02:05:56.196Z,0
2017-09-23T02:06:55.550Z,0
2017-09-23T02:07:55.153Z,0
2017-09-23T02:08:55.140Z,0
2017-09-23T02:09:55.461Z,0
2017-09-23T02:10:55.762Z,0
2017-09-23T02:11:55.742Z,0
2017-09-23T02:12:56.059Z,0
2017-09-23T02:13:55.079Z,0
2017-09-23T02:14:55.708Z,0
2017-09-23T02:15:56.027Z,0
2017-09-23T02:16:55.685Z,0
2017-09-23T02:17:55.677Z,0
2017-09-23T02:18:55.341Z,0
2017-09-23T02:19:55.330Z,0
2017-09-23T02:20:55.315Z,0
2017-09-23T02:21:54.979Z,0
2017-09-23T02:22:55.293Z,0
2017-09-23T02:23:55.930Z,0
2017-09-23T02:24:55.267Z,0
2017-09-23T02:25:55.261Z,0
2017-09-23T02:26:55.254Z,0
2017-09-23T02:27:55.225Z,0
2017-09-23T02:28:55.535Z,0
2017-09-23T02:29:54.560Z,0
2017-09-23T02:30:55.186Z,0
2017-09-23T02:31:55.494Z,0
2017-09-23T02:32:55.499Z,0
2017-09-23T02:33:54.829Z,0
2017-09-23T02:34:55.145Z,0
2017-09-23T02:35:55.801Z,0
2017-09-23T02:36:54.844Z,0
2017-09-23T02:37:55.546Z,0
2017-09-23T02:38:55.089Z,0
2017-09-23T02:39:54.767Z,0
2017-09-23T02:40:55.395Z,0
2017-09-23T02:41:54.732Z,0
2017-09-23T02:42:54.724Z,0
2017-09-23T02:43:54.720Z,0
2017-09-23T02:44:55.354Z,0
2017-09-23T02:45:55.010Z,0
2017-09-23T02:46:55.025Z,0
2017-09-23T02:47:55.315Z,0
2017-09-23T02:48:55.286Z,0
2017-09-23T02:49:55.280Z,0
2017-09-23T02:50:54.944Z,0
2017-09-23T02:51:55.262Z,0
2017-09-23T02:52:54.971Z,0
2017-09-23T02:53:54.583Z,0
2017-09-23T02:54:54.891Z,0
2017-09-23T02:55:55.205Z,0
2017-09-23T02:56:54.869Z,0
2017-09-23T02:57:55.187Z,0
2017-09-23T02:58:54.520Z,0
2017-09-23T02:59:54.534Z,0
2017-09-23T03:00:55.468Z,0
2017-09-23T03:01:55.175Z,0
2017-09-23T03:02:54.474Z,0
2017-09-23T03:03:55.093Z,0
2017-09-23T03:04:54.447Z,0
2017-09-23T03:05:54.762Z,0
2017-09-23T03:06:54.750Z,0
2017-09-23T03:07:54.415Z,0
2017-09-23T03:08:54.777Z,0
2017-09-23T03:09:54.711Z,0
2017-09-23T03:10:54.373Z,0
2017-09-23T03:11:54.360Z,0
2017-09-23T03:12:54.350Z,0
2017-09-23T03:13:54.677Z,0
2017-09-23T03:14:54.321Z,0
2017-09-23T03:15:54.640Z,0
2017-09-23T03:16:54.627Z,0
2017-09-23T03:17:54.628Z,0
2017-09-23T03:18:53.969Z,0
2017-09-23T03:19:54.270Z,0
2017-09-23T03:20:54.258Z,0
2017-09-23T03:21:54.289Z,0
2017-09-23T03:22:54.273Z,0
2017-09-23T03:23:54.863Z,0
2017-09-23T03:24:55.172Z,0
2017-09-23T03:25:54.823Z,0
2017-09-23T03:26:55.143Z,0
2017-09-23T03:27:54.167Z,0
2017-09-23T03:28:54.570Z,0
2017-09-23T03:29:54.781Z,0
2017-09-23T03:30:54.450Z,0
2017-09-23T03:31:54.440Z,0
2017-09-23T03:32:54.739Z,0
2017-09-23T03:33:53.821Z,0
2017-09-23T03:34:54.720Z,0
2017-09-23T03:35:54.058Z,0
2017-09-23T03:36:55.014Z,0
2017-09-23T03:37:54.685Z,0
2017-09-23T03:38:54.661Z,0
2017-09-23T03:39:54.324Z,0
2017-09-23T03:40:54.331Z,0
2017-09-23T03:41:53.664Z,0
2017-09-23T03:42:53.971Z,0
2017-09-23T03:43:54.285Z,0
2017-09-23T03:44:54.594Z,0
2017-09-23T03:45:54.597Z,0
2017-09-23T03:46:54.623Z,0
2017-09-23T03:47:54.560Z,0
2017-09-23T03:48:53.898Z,0
2017-09-23T03:49:54.529Z,0
2017-09-23T03:50:54.201Z,0
2017-09-23T03:51:53.557Z,0
2017-09-23T03:52:54.170Z,0
2017-09-23T03:53:54.039Z,0
2017-09-23T03:54:54.463Z,0
2017-09-23T03:55:54.472Z,0
2017-09-23T03:56:54.127Z,0
2017-09-23T03:57:53.512Z,0
2017-09-23T03:58:54.112Z,0
2017-09-23T03:59:53.758Z,0
2017-09-23T04:00:54.064Z,0
2017-09-23T04:01:54.432Z,0
2017-09-23T04:02:53.729Z,0
2017-09-23T04:03:54.351Z,0
2017-09-23T04:04:54.132Z,0
2017-09-23T04:05:54.007Z,0
2017-09-23T04:06:53.722Z,0
2017-09-23T04:07:53.987Z,0
2017-09-23T04:08:53.710Z,0
2017-09-23T04:09:53.953Z,0
2017-09-23T04:10:53.953Z,0
2017-09-23T04:11:54.314Z,0
2017-09-23T04:12:53.275Z,0
2017-09-23T04:13:53.585Z,0
2017-09-23T04:14:53.572Z,0
2017-09-23T04:15:53.895Z,0
2017-09-23T04:16:53.574Z,0
2017-09-23T04:17:54.175Z,0
2017-09-23T04:18:54.181Z,0
2017-09-23T04:19:54.150Z,0
2017-09-23T04:20:54.145Z,0
2017-09-23T04:21:53.824Z,0
2017-09-23T04:22:54.133Z,0
2017-09-23T04:23:53.829Z,0
2017-09-23T04:24:54.102Z,0
2017-09-23T04:25:54.405Z,0
2017-09-23T04:26:53.748Z,0
2017-09-23T04:27:54.058Z,0
2017-09-23T04:28:53.399Z,0
2017-09-23T04:29:54.352Z,0
2017-09-23T04:30:54.026Z,0
2017-09-23T04:31:53.735Z,0
2017-09-23T04:32:53.988Z,0
2017-09-23T04:33:54.082Z,0
2017-09-23T04:34:53.317Z,0
2017-09-23T04:35:53.678Z,0
2017-09-23T04:36:53.617Z,0
2017-09-23T04:37:53.603Z,0
2017-09-23T04:38:53.905Z,0
2017-09-23T04:39:53.577Z,0
2017-09-23T04:40:53.243Z,0
2017-09-23T04:41:53.237Z,0
2017-09-23T04:42:53.859Z,0
2017-09-23T04:43:52.902Z,0
2017-09-23T04:44:53.839Z,0
2017-09-23T04:45:53.845Z,0
2017-09-23T04:46:53.494Z,0
2017-09-23T04:47:53.494Z,0
2017-09-23T04:48:53.466Z,0
2017-09-23T04:49:53.787Z,0
2017-09-23T04:50:53.493Z,0
2017-09-23T04:51:53.804Z,0
2017-09-23T04:52:53.419Z,0
2017-09-23T04:53:53.728Z,0
2017-09-23T04:54:53.114Z,0
2017-09-23T04:55:53.099Z,0
2017-09-23T04:56:53.088Z,0
2017-09-23T04:57:54.031Z,0
2017-09-23T04:58:53.662Z,0
2017-09-23T04:59:53.074Z,0
2017-09-23T05:00:52.994Z,0
2017-09-23T05:01:53.348Z,0
2017-09-23T05:02:53.605Z,0
2017-09-23T05:03:52.688Z,0
2017-09-23T05:04:53.587Z,0
2017-09-23T05:05:52.931Z,0
2017-09-23T05:06:53.245Z,0
2017-09-23T05:07:53.544Z,0
2017-09-23T05:08:53.869Z,0
2017-09-23T05:09:53.241Z,0
2017-09-23T05:10:53.516Z,0
2017-09-23T05:11:53.542Z,0
2017-09-23T05:12:53.483Z,0
2017-09-23T05:13:53.142Z,0
2017-09-23T05:14:53.134Z,0
2017-09-23T05:15:53.123Z,0
2017-09-23T05:16:53.108Z,0
2017-09-23T05:17:53.418Z,0
2017-09-23T05:18:53.090Z,0
2017-09-23T05:19:53.390Z,0
2017-09-23T05:20:52.413Z,0
2017-09-23T05:21:53.043Z,0
2017-09-23T05:22:53.678Z,0
2017-09-23T05:23:53.341Z,0
2017-09-23T05:24:53.010Z,0
2017-09-23T05:25:53.327Z,0
2017-09-23T05:26:53.307Z,0
2017-09-23T05:27:52.971Z,0
2017-09-23T05:28:53.286Z,0
2017-09-23T05:29:53.312Z,0
2017-09-23T05:30:52.607Z,0
2017-09-23T05:31:52.606Z,0
2017-09-23T05:32:52.269Z,0
2017-09-23T05:33:53.225Z,0
2017-09-23T05:34:53.530Z,0
2017-09-23T05:35:52.877Z,5
2017-09-23T05:36:52.529Z,5
2017-09-23T05:37:52.844Z,5
2017-09-23T05:38:53.157Z,5
2017-09-23T05:39:53.153Z,5
2017-09-23T05:40:52.807Z,5
2017-09-23T05:41:52.468Z,5
2017-09-23T05:42:52.458Z,5
2017-09-23T05:43:53.081Z,5
2017-09-23T05:44:52.746Z,10
2017-09-23T05:45:52.422Z,10
2017-09-23T05:46:52.406Z,10
2017-09-23T05:47:52.712Z,10
2017-09-23T05:48:53.026Z,10
2017-09-23T05:49:52.371Z,10
2017-09-23T05:50:53.312Z,10
2017-09-23T05:51:52.661Z,10
2017-09-23T05:52:53.286Z,10
2017-09-23T05:53:52.837Z,10
2017-09-23T05:54:52.300Z,10
2017-09-23T05:55:52.667Z,10
2017-09-23T05:56:52.926Z,10
2017-09-23T05:57:52.916Z,10
2017-09-23T05:58:52.895Z,10
2017-09-23T05:59:52.618Z,15
2017-09-23T06:00:53.189Z,15
2017-09-23T06:01:52.856Z,15
2017-09-23T06:02:52.524Z,15
2017-09-23T06:03:52.184Z,15
2017-09-23T06:04:52.500Z,15
2017-09-23T06:05:52.180Z,15
2017-09-23T06:06:52.473Z,15
2017-09-23T06:07:52.786Z,15
2017-09-23T06:08:52.760Z,15
2017-09-23T06:09:52.109Z,15
2017-09-23T06:10:52.415Z,15
2017-09-23T06:11:52.137Z,15
2017-09-23T06:12:52.404Z,20
2017-09-23T06:13:52.064Z,20
2017-09-23T06:14:52.686Z,20
2017-09-23T06:15:52.371Z,20
2017-09-23T06:16:52.020Z,20
2017-09-23T06:17:52.006Z,20
2017-09-23T06:18:52.967Z,20
2017-09-23T06:19:51.662Z,20
2017-09-23T06:20:52.293Z,20
2017-09-23T06:21:51.959Z,20
2017-09-23T06:22:51.938Z,15
2017-09-23T06:23:52.576Z,20
2017-09-23T06:24:52.563Z,20
2017-09-23T06:25:51.906Z,20
2017-09-23T06:26:52.861Z,20
2017-09-23T06:27:52.198Z,25
2017-09-23T06:28:51.868Z,25
2017-09-23T06:29:51.847Z,25
2017-09-23T06:30:52.169Z,25
2017-09-23T06:31:52.793Z,25
2017-09-23T06:32:52.133Z,25
2017-09-23T06:33:51.794Z,25
2017-09-23T06:34:52.750Z,25
2017-09-23T06:35:52.418Z,25
2017-09-23T06:36:52.722Z,25
2017-09-23T06:37:52.387Z,30
2017-09-23T06:38:52.060Z,30
2017-09-23T06:39:52.043Z,35
2017-09-23T06:40:52.349Z,35
2017-09-23T06:41:51.696Z,35
2017-09-23T06:42:52.039Z,40
2017-09-23T06:43:51.992Z,35
2017-09-23T06:44:52.309Z,40
2017-09-23T06:45:52.618Z,40
2017-09-23T06:46:52.611Z,40
2017-09-23T06:47:52.591Z,40
2017-09-23T06:48:51.614Z,45
2017-09-23T06:49:52.576Z,50
2017-09-23T06:50:52.221Z,45
2017-09-23T06:51:51.900Z,50
2017-09-23T06:52:51.572Z,50
2017-09-23T06:53:51.869Z,45
2017-09-23T06:54:51.853Z,50
2017-09-23T06:55:51.852Z,50
2017-09-23T06:56:51.549Z,45
2017-09-23T06:57:52.136Z,50
2017-09-23T06:58:51.802Z,45
2017-09-23T06:59:52.113Z,45
2017-09-23T07:00:52.106Z,40
2017-09-23T07:01:51.172Z,45
2017-09-23T07:02:51.756Z,45
2017-09-23T07:03:51.739Z,45
2017-09-23T07:04:51.728Z,45
2017-09-23T07:05:51.704Z,50
2017-09-23T07:06:51.701Z,50
2017-09-23T07:07:51.683Z,55
2017-09-23T07:08:51.673Z,55
2017-09-23T07:09:51.985Z,60
2017-09-23T07:10:51.977Z,65
2017-09-23T07:11:51.651Z,65
2017-09-23T07:12:52.294Z,65
2017-09-23T07:13:51.289Z,60
2017-09-23T07:14:51.281Z,60
2017-09-23T07:15:52.234Z,55
2017-09-23T07:16:51.572Z,50
2017-09-23T07:17:51.562Z,55
2017-09-23T07:18:52.196Z,55
2017-09-23T07:19:51.211Z,55
2017-09-23T07:20:51.538Z,55
2017-09-23T07:21:52.178Z,60
2017-09-23T07:22:51.499Z,65
2017-09-23T07:23:51.204Z,70
2017-09-23T07:24:51.799Z,65
2017-09-23T07:25:51.139Z,65
2017-09-23T07:26:51.447Z,65
2017-09-23T07:27:51.756Z,65
2017-09-23T07:28:51.419Z,65
2017-09-23T07:29:51.414Z,60
2017-09-23T07:30:51.721Z,65
2017-09-23T07:31:51.112Z,80
2017-09-23T07:32:51.694Z,65
2017-09-23T07:33:51.679Z,60
2017-09-23T07:34:51.029Z,55
2017-09-23T07:35:51.658Z,55
2017-09-23T07:36:51.319Z,55
2017-09-23T07:37:51.675Z,50
2017-09-23T07:38:51.319Z,55
2017-09-23T07:39:51.935Z,55
2017-09-23T07:40:51.269Z,55
2017-09-23T07:41:50.935Z,60
2017-09-23T07:42:51.251Z,60
2017-09-23T07:43:51.588Z,60
2017-09-23T07:44:51.227Z,65
2017-09-23T07:45:51.208Z,65
2017-09-23T07:46:51.524Z,60
2017-09-23T07:47:50.864Z,65
2017-09-23T07:48:51.185Z,60
2017-09-23T07:49:51.472Z,65
2017-09-23T07:50:50.826Z,70
2017-09-23T07:51:50.812Z,70
2017-09-23T07:52:51.494Z,65
2017-09-23T07:53:51.190Z,60
2017-09-23T07:54:50.787Z,60
2017-09-23T07:55:51.402Z,60
2017-09-23T07:56:51.713Z,55
2017-09-23T07:57:51.384Z,45
2017-09-23T07:58:50.750Z,40
2017-09-23T07:59:51.032Z,35
2017-09-23T08:00:51.018Z,30
2017-09-23T08:01:51.009Z,25
2017-09-23T08:02:50.993Z,25
2017-09-23T08:03:51.303Z,25
2017-09-23T08:04:51.620Z,25
2017-09-23T08:05:50.971Z,25
2017-09-23T08:06:50.945Z,25
2017-09-23T08:07:51.570Z,25
2017-09-23T08:08:51.571Z,20
2017-09-23T08:09:50.908Z,25
2017-09-23T08:10:51.604Z,25
2017-09-23T08:11:51.198Z,25
2017-09-23T08:12:50.868Z,25
2017-09-23T08:13:51.172Z,30
2017-09-23T08:14:50.839Z,30
2017-09-23T08:15:50.834Z,30
2017-09-23T08:16:50.825Z,35
2017-09-23T08:17:51.123Z,35
2017-09-23T08:18:51.123Z,40
2017-09-23T08:19:50.465Z,40
2017-09-23T08:20:50.778Z,45
2017-09-23T08:21:50.436Z,45
2017-09-23T08:22:51.070Z,45
2017-09-23T08:23:50.412Z,45
2017-09-23T08:24:51.041Z,45
2017-09-23T08:25:51.035Z,45
2017-09-23T08:26:51.020Z,50
2017-09-23T08:27:51.332Z,45
2017-09-23T08:28:50.714Z,45
2017-09-23T08:29:51.295Z,40
2017-09-23T08:30:50.638Z,40
2017-09-23T08:31:51.268Z,45
2017-09-23T08:32:50.617Z,50
2017-09-23T08:33:50.922Z,55
2017-09-23T08:34:50.610Z,60
2017-09-23T08:35:49.947Z,65
2017-09-23T08:36:50.243Z,80
2017-09-23T08:37:50.898Z,90
2017-09-23T08:38:50.540Z,95
2017-09-23T08:39:50.873Z,95
2017-09-23T08:40:50.835Z,105
2017-09-23T08:41:50.502Z,105
2017-09-23T08:42:51.138Z,110
2017-09-23T08:43:50.478Z,115
2017-09-23T08:44:50.143Z,120
2017-09-23T08:45:50.138Z,120
2017-09-23T08:46:50.119Z,120
2017-09-23T08:47:50.433Z,130
2017-09-23T08:48:50.096Z,140
2017-09-23T08:49:50.416Z,140
2017-09-23T08:50:50.392Z,145
2017-09-23T08:51:51.029Z,145
2017-09-23T08:52:50.419Z,145
2017-09-23T08:53:50.352Z,145
2017-09-23T08:54:50.677Z,140
2017-09-23T08:55:50.328Z,135
2017-09-23T08:56:50.655Z,140
2017-09-23T08:57:50.652Z,135
2017-09-23T08:58:50.301Z,130
2017-09-23T08:59:50.642Z,135
2017-09-23T09:00:49.954Z,140
2017-09-23T09:01:50.596Z,145
2017-09-23T09:02:49.929Z,145
2017-09-23T09:03:50.237Z,145
2017-09-23T09:04:49.896Z,135
2017-09-23T09:05:50.206Z,120
2017-09-23T09:06:49.884Z,110
2017-09-23T09:07:50.188Z,105
2017-09-23T09:08:50.814Z,95
2017-09-23T09:09:50.490Z,95
2017-09-23T09:10:49.849Z,85
2017-09-23T09:11:50.143Z,85
2017-09-23T09:12:50.135Z,80
2017-09-23T09:13:49.846Z,80
2017-09-23T09:14:49.808Z,80
2017-09-23T09:15:50.092Z,80
2017-09-23T09:16:50.082Z,80
2017-09-23T09:17:50.069Z,85
2017-09-23T09:18:49.742Z,85
2017-09-23T09:19:50.379Z,90
2017-09-23T09:20:50.044Z,90
2017-09-23T09:21:50.025Z,85
2017-09-23T09:22:50.338Z,80
2017-09-23T09:23:50.034Z,80
2017-09-23T09:24:49.673Z,85
2017-09-23T09:25:50.301Z,90
2017-09-23T09:26:49.966Z,95
2017-09-23T09:27:50.277Z,95
2017-09-23T09:28:49.619Z,100
2017-09-23T09:29:50.249Z,95
2017-09-23T09:30:49.914Z,95
2017-09-23T09:31:50.238Z,95
2017-09-23T09:32:50.541Z,95
2017-09-23T09:33:49.883Z,100
2017-09-23T09:34:50.198Z,115
2017-09-23T09:35:50.179Z,130
2017-09-23T09:36:50.161Z,140
2017-09-23T09:37:49.836Z,140
2017-09-23T09:38:49.815Z,140
2017-09-23T09:39:49.492Z,145
2017-09-23T09:40:49.797Z,145
2017-09-23T09:41:49.479Z,140
2017-09-23T09:42:50.101Z,135
2017-09-23T09:43:49.763Z,130
2017-09-23T09:44:49.751Z,120
2017-09-23T09:45:49.745Z,120
2017-09-23T09:46:50.369Z,120
2017-09-23T09:47:49.711Z,120
2017-09-23T09:48:50.025Z,125
2017-09-23T09:49:50.326Z,125
2017-09-23T09:50:50.318Z,125
2017-09-23T09:51:49.367Z,130
2017-09-23T09:52:50.330Z,125
2017-09-23T09:53:49.963Z,115
2017-09-23T09:54:49.633Z,105
2017-09-23T09:55:49.960Z,95
2017-09-23T09:56:50.253Z,95
2017-09-23T09:57:49.596Z,90
2017-09-23T09:58:49.912Z,85
2017-09-23T09:59:49.895Z,85
2017-09-23T10:00:49.564Z,80
2017-09-23T10:01:50.199Z,75
2017-09-23T10:02:49.536Z,75
2017-09-23T10:03:50.188Z,80
2017-09-23T10:04:49.852Z,90
2017-09-23T10:05:49.825Z,100
2017-09-23T10:06:50.134Z,100
2017-09-23T10:07:49.491Z,105
2017-09-23T10:08:50.125Z,100
2017-09-23T10:09:49.470Z,100
2017-09-23T10:10:49.454Z,95
2017-09-23T10:11:49.122Z,95
2017-09-23T10:12:49.447Z,90
2017-09-23T10:13:48.769Z,95
2017-09-23T10:14:49.722Z,100
2017-09-23T10:15:49.718Z,105
2017-09-23T10:16:49.700Z,105
2017-09-23T10:17:49.691Z,100
2017-09-23T10:18:49.038Z,95
2017-09-23T10:19:49.344Z,90
2017-09-23T10:20:48.730Z,90
2017-09-23T10:21:49.319Z,80
2017-09-23T10:22:49.317Z,75
2017-09-23T10:23:49.031Z,75
2017-09-23T10:24:49.616Z,75
2017-09-23T10:25:49.593Z,85
2017-09-23T10:26:49.899Z,95
2017-09-23T10:27:49.249Z,100
2017-09-23T10:28:49.242Z,100
2017-09-23T10:29:49.237Z,110
2017-09-23T10:30:49.913Z,115
2017-09-23T10:31:48.884Z,120
2017-09-23T10:32:49.543Z,120
2017-09-23T10:33:48.854Z,120
2017-09-23T10:34:49.486Z,125
2017-09-23T10:35:48.841Z,130
2017-09-23T10:36:48.822Z,135
2017-09-23T10:37:49.778Z,135
2017-09-23T10:38:49.126Z,130
2017-09-23T10:39:49.119Z,130
2017-09-23T10:40:49.108Z,130
2017-09-23T10:41:49.418Z,135
2017-09-23T10:42:48.765Z,135
2017-09-23T10:43:48.747Z,140
2017-09-23T10:44:49.701Z,140
2017-09-23T10:45:49.052Z,135
2017-09-23T10:46:49.038Z,130
2017-09-23T10:47:49.021Z,130
2017-09-23T10:48:49.010Z,145
2017-09-23T10:49:49.639Z,165
2017-09-23T10:50:49.309Z,175
2017-09-23T10:51:49.309Z,165
2017-09-23T10:52:48.957Z,165
2017-09-23T10:53:49.271Z,180
2017-09-23T10:54:48.938Z,190
2017-09-23T10:55:48.945Z,190
2017-09-23T10:56:48.594Z,195
2017-09-23T10:57:48.588Z,205
2017-09-23T10:58:48.905Z,205
2017-09-23T10:59:48.885Z,205
2017-09-23T11:00:49.511Z,215
2017-09-23T11:01:48.869Z,225
2017-09-23T11:02:48.852Z,240
2017-09-23T11:03:49.163Z,245
2017-09-23T11:04:48.516Z,285
2017-09-23T11:05:48.840Z,295
2017-09-23T11:06:48.815Z,290
2017-09-23T11:07:48.804Z,285
2017-09-23T11:08:48.467Z,300
2017-09-23T11:09:48.454Z,335
2017-09-23T11:10:48.124Z,350
2017-09-23T11:11:49.073Z,370
2017-09-23T11:12:48.420Z,380
2017-09-23T11:13:49.087Z,395
2017-09-23T11:14:48.398Z,420
2017-09-23T11:15:48.712Z,410
2017-09-23T11:16:48.702Z,415
2017-09-23T11:17:49.018Z,420
2017-09-23T11:18:48.679Z,455
2017-09-23T11:19:48.345Z,475
2017-09-23T11:20:48.661Z,465
2017-09-23T11:21:48.650Z,445
2017-09-23T11:22:48.646Z,460
2017-09-23T11:23:49.281Z,415
2017-09-23T11:24:48.626Z,400
2017-09-23T11:25:48.611Z,390
2017-09-23T11:26:48.946Z,355
2017-09-23T11:27:48.919Z,305
2017-09-23T11:28:48.917Z,265
2017-09-23T11:29:48.581Z,260
2017-09-23T11:30:48.575Z,240
2017-09-23T11:31:49.203Z,225
2017-09-23T11:32:48.241Z,205
2017-09-23T11:33:48.230Z,185
2017-09-23T11:34:49.181Z,175
2017-09-23T11:35:49.182Z,160
2017-09-23T11:36:48.209Z,160
2017-09-23T11:37:48.512Z,160
2017-09-23T11:38:49.154Z,160
2017-09-23T11:39:49.142Z,175
2017-09-23T11:40:48.489Z,185
2017-09-23T11:41:48.480Z,185
2017-09-23T11:42:48.480Z,185
2017-09-23T11:43:49.115Z,190
2017-09-23T11:44:48.138Z,200
2017-09-23T11:45:48.770Z,230
2017-09-23T11:46:48.786Z,255
2017-09-23T11:47:48.430Z,275
2017-09-23T11:48:48.778Z,290
2017-09-23T11:49:48.409Z,290
2017-09-23T11:50:49.046Z,300
2017-09-23T11:51:48.722Z,295
2017-09-23T11:52:48.707Z,280
2017-09-23T11:53:48.062Z,255
2017-09-23T11:54:48.569Z,235
2017-09-23T11:55:48.358Z,205
2017-09-23T11:56:47.706Z,185
2017-09-23T11:57:48.048Z,180
2017-09-23T11:58:48.012Z,180
2017-09-23T11:59:48.324Z,185
2017-09-23T12:00:48.640Z,190
2017-09-23T12:01:48.983Z,200
2017-09-23T12:02:48.304Z,210
2017-09-23T12:03:48.607Z,220
2017-09-23T12:04:47.964Z,230
2017-09-23T12:05:47.979Z,225
2017-09-23T12:06:47.941Z,225
2017-09-23T12:07:47.948Z,230
2017-09-23T12:08:47.599Z,235
2017-09-23T12:09:48.558Z,245
2017-09-23T12:10:48.581Z,265
2017-09-23T12:11:48.555Z,275
2017-09-23T12:12:47.885Z,260
2017-09-23T12:13:48.189Z,255
2017-09-23T12:14:48.189Z,245
2017-09-23T12:15:47.863Z,235
2017-09-23T12:16:48.178Z,230
2017-09-23T12:17:48.813Z,225
2017-09-23T12:18:48.155Z,230
2017-09-23T12:19:48.462Z,230
2017-09-23T12:20:48.142Z,235
2017-09-23T12:21:48.490Z,245
2017-09-23T12:22:47.793Z,260
2017-09-23T12:23:48.434Z,280
2017-09-23T12:24:47.776Z,310
2017-09-23T12:25:48.098Z,350
2017-09-23T12:26:48.108Z,395
2017-09-23T12:27:48.086Z,475
2017-09-23T12:28:48.068Z,790
2017-09-23T12:29:48.377Z,825
2017-09-23T12:30:48.369Z,685
2017-09-23T12:31:48.367Z,650
2017-09-23T12:32:47.728Z,810
2017-09-23T12:33:48.058Z,955
2017-09-23T12:34:47.703Z,1070
2017-09-23T12:35:48.654Z,1110
2017-09-23T12:36:47.719Z,1040
2017-09-23T12:37:47.676Z,855
2017-09-23T12:38:48.632Z,690
2017-09-23T12:39:47.992Z,880
2017-09-23T12:40:48.628Z,895
2017-09-23T12:41:48.297Z,830
2017-09-23T12:42:47.644Z,635
2017-09-23T12:43:48.298Z,510
2017-09-23T12:44:47.965Z,460
2017-09-23T12:45:47.969Z,430
2017-09-23T12:46:47.951Z,425
2017-09-23T12:47:47.972Z,440
2017-09-23T12:48:47.620Z,520
2017-09-23T12:49:47.292Z,490
2017-09-23T12:50:47.608Z,430
2017-09-23T12:51:47.931Z,370
2017-09-23T12:52:48.250Z,335
2017-09-23T12:53:47.603Z,305
2017-09-23T12:54:47.927Z,285
2017-09-23T12:55:47.613Z,275
2017-09-23T12:56:48.572Z,280
2017-09-23T12:57:48.235Z,285
2017-09-23T12:58:47.901Z,305
2017-09-23T12:59:47.583Z,320
2017-09-23T13:00:47.886Z,330
2017-09-23T13:01:47.889Z,320
2017-09-23T13:02:48.208Z,290
2017-09-23T13:03:47.867Z,265
2017-09-23T13:04:48.183Z,245
2017-09-23T13:05:47.535Z,245
2017-09-23T13:06:47.859Z,250
2017-09-23T13:07:47.522Z,255
2017-09-23T13:08:48.492Z,260
2017-09-23T13:09:47.841Z,270
2017-09-23T13:10:48.153Z,280
2017-09-23T13:11:48.149Z,310
2017-09-23T13:12:47.807Z,430
2017-09-23T13:13:48.125Z,440
2017-09-23T13:14:47.826Z,440
2017-09-23T13:15:47.485Z,490
2017-09-23T13:16:47.793Z,630
2017-09-23T13:17:47.777Z,975
2017-09-23T13:18:47.449Z,860
2017-09-23T13:19:47.771Z,1135
2017-09-23T13:20:48.098Z,1115
2017-09-23T13:21:47.435Z,1090
2017-09-23T13:22:47.756Z,1085
2017-09-23T13:23:48.069Z,1055
2017-09-23T13:24:47.419Z,1020
2017-09-23T13:25:47.408Z,1000
2017-09-23T13:26:48.084Z,1005
2017-09-23T13:27:47.748Z,995
2017-09-23T13:28:47.407Z,985
2017-09-23T13:29:47.722Z,960
2017-09-23T13:30:47.723Z,995
2017-09-23T13:31:48.357Z,955
2017-09-23T13:32:47.390Z,895
2017-09-23T13:33:47.379Z,905
2017-09-23T13:34:48.050Z,885
2017-09-23T13:35:47.698Z,960
2017-09-23T13:36:47.710Z,965
2017-09-23T13:37:48.013Z,945
2017-09-23T13:38:48.065Z,930
2017-09-23T13:39:47.695Z,915
2017-09-23T13:40:48.009Z,945
2017-09-23T13:41:48.031Z,950
2017-09-23T13:42:48.327Z,945
2017-09-23T13:43:48.336Z,940
2017-09-23T13:44:48.009Z,940
2017-09-23T13:45:47.363Z,945
2017-09-23T13:46:47.364Z,930
2017-09-23T13:47:48.338Z,900
2017-09-23T13:48:48.047Z,875
2017-09-23T13:49:48.337Z,860
2017-09-23T13:50:48.016Z,830
2017-09-23T13:51:48.026Z,845
2017-09-23T13:52:48.337Z,810
2017-09-23T13:53:47.732Z,825
2017-09-23T13:54:47.898Z,845
2017-09-23T13:55:48.012Z,535
2017-09-23T13:56:48.392Z,505
2017-09-23T13:57:47.693Z,385
2017-09-23T13:58:48.013Z,365
2017-09-23T13:59:47.694Z,350
2017-09-23T14:00:48.019Z,355
2017-09-23T14:01:47.691Z,705
2017-09-23T14:02:48.332Z,355
2017-09-23T14:03:48.017Z,340
2017-09-23T14:04:47.685Z,345
2017-09-23T14:05:47.720Z,335
2017-09-23T14:06:47.741Z,325
2017-09-23T14:07:47.682Z,320
2017-09-23T14:08:47.359Z,305
2017-09-23T14:09:48.004Z,315
2017-09-23T14:10:47.362Z,495
2017-09-23T14:11:47.998Z,505
2017-09-23T14:12:47.354Z,665
2017-09-23T14:13:47.353Z,645
2017-09-23T14:14:47.350Z,490
2017-09-23T14:15:47.672Z,345
2017-09-23T14:16:47.673Z,335
2017-09-23T14:17:47.658Z,360